sensor_id;sensor_type;location;lat;lon;timestamp;temperature;humidity
69387;SHT31;56575;48.942;8.404;2023-04-03T00:00:29;6.37;67.06
69387;SHT31;56575;48.942;8.404;2023-04-03T00:02:54;6.36;66.74
69387;SHT31;56575;48.942;8.404;2023-04-03T00:05:20;6.34;67.54
69387;SHT31;56575;48.942;8.404;2023-04-03T00:07:45;6.33;67.34
69387;SHT31;56575;48.942;8.404;2023-04-03T00:10:11;6.33;67.51
69387;SHT31;56575;48.942;8.404;2023-04-03T00:12:36;6.30;67.10
69387;SHT31;56575;48.942;8.404;2023-04-03T00:15:02;6.34;67.26
69387;SHT31;56575;48.942;8.404;2023-04-03T00:17:27;6.30;67.58
69387;SHT31;56575;48.942;8.404;2023-04-03T00:19:53;6.30;67.55
69387;SHT31;56575;48.942;8.404;2023-04-03T00:22:18;6.31;67.19
69387;SHT31;56575;48.942;8.404;2023-04-03T00:24:44;6.34;67.74
69387;SHT31;56575;48.942;8.404;2023-04-03T00:27:11;6.36;67.08
69387;SHT31;56575;48.942;8.404;2023-04-03T00:29:36;6.36;67.18
69387;SHT31;56575;48.942;8.404;2023-04-03T00:32:01;6.33;67.15
69387;SHT31;56575;48.942;8.404;2023-04-03T00:34:28;6.36;67.34
69387;SHT31;56575;48.942;8.404;2023-04-03T00:36:53;6.37;67.14
69387;SHT31;56575;48.942;8.404;2023-04-03T00:39:18;6.36;67.61
69387;SHT31;56575;48.942;8.404;2023-04-03T00:41:44;6.33;66.35
69387;SHT31;56575;48.942;8.404;2023-04-03T00:44:23;6.30;67.14
69387;SHT31;56575;48.942;8.404;2023-04-03T00:47:07;6.29;67.18
69387;SHT31;56575;48.942;8.404;2023-04-03T00:49:33;6.31;67.12
69387;SHT31;56575;48.942;8.404;2023-04-03T00:52:00;6.30;66.94
69387;SHT31;56575;48.942;8.404;2023-04-03T00:54:26;6.26;67.14
69387;SHT31;56575;48.942;8.404;2023-04-03T00:56:53;6.23;67.14
69387;SHT31;56575;48.942;8.404;2023-04-03T00:59:22;6.21;67.21
69387;SHT31;56575;48.942;8.404;2023-04-03T01:01:51;6.23;67.80
69387;SHT31;56575;48.942;8.404;2023-04-03T01:06:53;6.13;67.01
69387;SHT31;56575;48.942;8.404;2023-04-03T01:09:21;6.20;67.68
69387;SHT31;56575;48.942;8.404;2023-04-03T01:11:47;6.17;67.60
69387;SHT31;56575;48.942;8.404;2023-04-03T01:14:12;6.17;67.63
69387;SHT31;56575;48.942;8.404;2023-04-03T01:16:37;6.16;67.96
69387;SHT31;56575;48.942;8.404;2023-04-03T01:19:07;6.16;68.30
69387;SHT31;56575;48.942;8.404;2023-04-03T01:22:05;6.16;67.48
69387;SHT31;56575;48.942;8.404;2023-04-03T01:24:36;6.13;67.58
69387;SHT31;56575;48.942;8.404;2023-04-03T01:27:05;6.06;67.92
69387;SHT31;56575;48.942;8.404;2023-04-03T01:29:31;6.05;68.61
69387;SHT31;56575;48.942;8.404;2023-04-03T01:32:01;6.07;68.37
69387;SHT31;56575;48.942;8.404;2023-04-03T01:34:29;6.10;68.13
69387;SHT31;56575;48.942;8.404;2023-04-03T01:36:55;6.09;68.46
69387;SHT31;56575;48.942;8.404;2023-04-03T01:39:20;6.03;68.22
69387;SHT31;56575;48.942;8.404;2023-04-03T01:41:46;6.01;68.27
69387;SHT31;56575;48.942;8.404;2023-04-03T01:44:12;6.01;68.56
69387;SHT31;56575;48.942;8.404;2023-04-03T01:46:37;5.98;68.26
69387;SHT31;56575;48.942;8.404;2023-04-03T01:49:04;5.92;68.12
69387;SHT31;56575;48.942;8.404;2023-04-03T01:51:29;5.91;68.82
69387;SHT31;56575;48.942;8.404;2023-04-03T01:53:55;5.85;69.07
69387;SHT31;56575;48.942;8.404;2023-04-03T01:56:21;5.82;68.93
69387;SHT31;56575;48.942;8.404;2023-04-03T01:58:46;5.78;69.39
69387;SHT31;56575;48.942;8.404;2023-04-03T02:01:11;5.76;69.37
69387;SHT31;56575;48.942;8.404;2023-04-03T02:03:37;5.71;69.28
69387;SHT31;56575;48.942;8.404;2023-04-03T02:06:02;5.69;69.42
69387;SHT31;56575;48.942;8.404;2023-04-03T02:08:28;5.68;69.65
69387;SHT31;56575;48.942;8.404;2023-04-03T02:10:53;5.64;69.97
69387;SHT31;56575;48.942;8.404;2023-04-03T02:13:19;5.62;70.59
69387;SHT31;56575;48.942;8.404;2023-04-03T02:15:44;5.58;70.47
69387;SHT31;56575;48.942;8.404;2023-04-03T02:18:11;5.54;70.32
69387;SHT31;56575;48.942;8.404;2023-04-03T02:20:36;5.54;70.08
69387;SHT31;56575;48.942;8.404;2023-04-03T02:23:02;5.50;70.10
69387;SHT31;56575;48.942;8.404;2023-04-03T02:25:28;5.41;69.73
69387;SHT31;56575;48.942;8.404;2023-04-03T02:27:53;5.38;70.08
69387;SHT31;56575;48.942;8.404;2023-04-03T02:30:18;5.30;69.17
69387;SHT31;56575;48.942;8.404;2023-04-03T02:32:44;5.22;69.29
69387;SHT31;56575;48.942;8.404;2023-04-03T02:35:11;5.18;69.35
69387;SHT31;56575;48.942;8.404;2023-04-03T02:37:37;5.10;70.36
69387;SHT31;56575;48.942;8.404;2023-04-03T02:40:03;5.03;69.57
69387;SHT31;56575;48.942;8.404;2023-04-03T02:42:29;4.99;70.17
69387;SHT31;56575;48.942;8.404;2023-04-03T02:44:54;5.03;70.11
69387;SHT31;56575;48.942;8.404;2023-04-03T02:47:20;4.99;70.03
69387;SHT31;56575;48.942;8.404;2023-04-03T02:49:45;4.97;70.11
69387;SHT31;56575;48.942;8.404;2023-04-03T02:52:12;4.95;70.37
69387;SHT31;56575;48.942;8.404;2023-04-03T02:54:37;4.95;71.19
69387;SHT31;56575;48.942;8.404;2023-04-03T02:57:03;4.88;70.77
69387;SHT31;56575;48.942;8.404;2023-04-03T02:59:29;4.83;70.64
69387;SHT31;56575;48.942;8.404;2023-04-03T03:01:54;4.81;70.88
69387;SHT31;56575;48.942;8.404;2023-04-03T03:04:20;4.79;71.82
69387;SHT31;56575;48.942;8.404;2023-04-03T03:06:46;4.78;70.79
69387;SHT31;56575;48.942;8.404;2023-04-03T03:09:12;4.76;70.68
69387;SHT31;56575;48.942;8.404;2023-04-03T03:11:38;4.69;71.20
69387;SHT31;56575;48.942;8.404;2023-04-03T03:14:04;4.67;71.46
69387;SHT31;56575;48.942;8.404;2023-04-03T03:16:30;4.60;71.37
69387;SHT31;56575;48.942;8.404;2023-04-03T03:18:55;4.58;71.68
69387;SHT31;56575;48.942;8.404;2023-04-03T03:21:21;4.55;71.68
69387;SHT31;56575;48.942;8.404;2023-04-03T03:23:46;4.55;71.91
69387;SHT31;56575;48.942;8.404;2023-04-03T03:26:12;4.47;71.85
69387;SHT31;56575;48.942;8.404;2023-04-03T03:28:38;4.47;72.00
69387;SHT31;56575;48.942;8.404;2023-04-03T03:31:05;4.43;72.00
69387;SHT31;56575;48.942;8.404;2023-04-03T03:33:31;4.46;72.19
69387;SHT31;56575;48.942;8.404;2023-04-03T03:35:56;4.43;72.47
69387;SHT31;56575;48.942;8.404;2023-04-03T03:38:22;4.38;72.51
69387;SHT31;56575;48.942;8.404;2023-04-03T03:40:48;4.37;72.33
69387;SHT31;56575;48.942;8.404;2023-04-03T03:43:15;4.37;73.03
69387;SHT31;56575;48.942;8.404;2023-04-03T03:45:40;4.30;72.88
69387;SHT31;56575;48.942;8.404;2023-04-03T03:48:06;4.30;73.08
69387;SHT31;56575;48.942;8.404;2023-04-03T03:50:31;4.29;73.12
69387;SHT31;56575;48.942;8.404;2023-04-03T03:52:56;4.26;73.06
69387;SHT31;56575;48.942;8.404;2023-04-03T03:55:22;4.24;72.68
69387;SHT31;56575;48.942;8.404;2023-04-03T03:57:47;4.24;73.14
69387;SHT31;56575;48.942;8.404;2023-04-03T04:00:13;4.29;72.66
69387;SHT31;56575;48.942;8.404;2023-04-03T04:02:38;4.27;72.97
69387;SHT31;56575;48.942;8.404;2023-04-03T04:05:04;4.29;72.83
69387;SHT31;56575;48.942;8.404;2023-04-03T04:07:30;4.27;72.52
69387;SHT31;56575;48.942;8.404;2023-04-03T04:09:55;4.32;72.70
69387;SHT31;56575;48.942;8.404;2023-04-03T04:12:20;4.30;72.13
69387;SHT31;56575;48.942;8.404;2023-04-03T04:14:47;4.32;72.28
69387;SHT31;56575;48.942;8.404;2023-04-03T04:17:13;4.34;72.53
69387;SHT31;56575;48.942;8.404;2023-04-03T04:19:39;4.38;72.17
69387;SHT31;56575;48.942;8.404;2023-04-03T04:22:04;4.41;72.10
69387;SHT31;56575;48.942;8.404;2023-04-03T04:24:29;4.46;71.93
69387;SHT31;56575;48.942;8.404;2023-04-03T04:26:55;4.47;71.89
69387;SHT31;56575;48.942;8.404;2023-04-03T04:29:21;4.50;71.97
69387;SHT31;56575;48.942;8.404;2023-04-03T04:31:46;4.57;71.85
69387;SHT31;56575;48.942;8.404;2023-04-03T04:34:11;4.58;72.09
69387;SHT31;56575;48.942;8.404;2023-04-03T04:36:38;4.61;71.58
69387;SHT31;56575;48.942;8.404;2023-04-03T04:39:04;4.62;71.67
69387;SHT31;56575;48.942;8.404;2023-04-03T04:41:30;4.67;71.28
69387;SHT31;56575;48.942;8.404;2023-04-03T04:43:55;4.64;71.57
69387;SHT31;56575;48.942;8.404;2023-04-03T04:46:21;4.67;71.99
69387;SHT31;56575;48.942;8.404;2023-04-03T04:48:47;4.62;71.72
69387;SHT31;56575;48.942;8.404;2023-04-03T04:51:14;4.62;72.18
69387;SHT31;56575;48.942;8.404;2023-04-03T04:53:39;4.62;72.52
69387;SHT31;56575;48.942;8.404;2023-04-03T04:56:06;4.61;72.54
69387;SHT31;56575;48.942;8.404;2023-04-03T04:58:31;4.58;72.39
69387;SHT31;56575;48.942;8.404;2023-04-03T05:01:04;4.58;72.91
69387;SHT31;56575;48.942;8.404;2023-04-03T05:03:30;4.54;73.08
69387;SHT31;56575;48.942;8.404;2023-04-03T05:05:56;4.57;72.93
69387;SHT31;56575;48.942;8.404;2023-04-03T05:08:21;4.58;72.70
69387;SHT31;56575;48.942;8.404;2023-04-03T05:10:47;4.58;73.06
69387;SHT31;56575;48.942;8.404;2023-04-03T05:13:13;4.57;72.50
69387;SHT31;56575;48.942;8.404;2023-04-03T05:15:39;4.58;72.74
69387;SHT31;56575;48.942;8.404;2023-04-03T05:18:05;4.58;71.94
69387;SHT31;56575;48.942;8.404;2023-04-03T05:20:31;4.62;72.00
69387;SHT31;56575;48.942;8.404;2023-04-03T05:22:57;4.64;71.62
69387;SHT31;56575;48.942;8.404;2023-04-03T05:25:22;4.67;72.06
69387;SHT31;56575;48.942;8.404;2023-04-03T05:27:48;4.65;71.49
69387;SHT31;56575;48.942;8.404;2023-04-03T05:30:13;4.72;71.51
69387;SHT31;56575;48.942;8.404;2023-04-03T05:32:39;4.71;71.02
69387;SHT31;56575;48.942;8.404;2023-04-03T05:35:05;4.79;70.93
69387;SHT31;56575;48.942;8.404;2023-04-03T05:37:31;4.76;70.85
69387;SHT31;56575;48.942;8.404;2023-04-03T05:39:56;4.71;69.68
69387;SHT31;56575;48.942;8.404;2023-04-03T05:42:22;4.69;70.16
69387;SHT31;56575;48.942;8.404;2023-04-03T05:44:47;4.71;70.60
69387;SHT31;56575;48.942;8.404;2023-04-03T05:47:13;4.60;70.51
69387;SHT31;56575;48.942;8.404;2023-04-03T05:49:39;4.57;70.75
69387;SHT31;56575;48.942;8.404;2023-04-03T05:52:19;4.57;70.58
69387;SHT31;56575;48.942;8.404;2023-04-03T05:54:45;4.55;70.48
69387;SHT31;56575;48.942;8.404;2023-04-03T05:57:13;4.58;70.54
69387;SHT31;56575;48.942;8.404;2023-04-03T05:59:39;4.61;70.94
69387;SHT31;56575;48.942;8.404;2023-04-03T06:02:06;4.67;70.61
69387;SHT31;56575;48.942;8.404;2023-04-03T06:04:31;4.64;70.26
69387;SHT31;56575;48.942;8.404;2023-04-03T06:06:57;4.72;70.78
69387;SHT31;56575;48.942;8.404;2023-04-03T06:09:25;4.72;70.58
69387;SHT31;56575;48.942;8.404;2023-04-03T06:11:52;4.78;70.45
69387;SHT31;56575;48.942;8.404;2023-04-03T06:14:18;4.79;70.07
69387;SHT31;56575;48.942;8.404;2023-04-03T06:16:43;4.75;70.08
69387;SHT31;56575;48.942;8.404;2023-04-03T06:19:09;4.79;70.23
69387;SHT31;56575;48.942;8.404;2023-04-03T06:21:35;4.83;70.47
69387;SHT31;56575;48.942;8.404;2023-04-03T06:24:01;4.86;70.02
69387;SHT31;56575;48.942;8.404;2023-04-03T06:26:27;4.89;69.97
69387;SHT31;56575;48.942;8.404;2023-04-03T06:28:53;4.97;69.40
69387;SHT31;56575;48.942;8.404;2023-04-03T06:31:19;4.99;69.21
69387;SHT31;56575;48.942;8.404;2023-04-03T06:33:45;5.03;68.95
69387;SHT31;56575;48.942;8.404;2023-04-03T06:36:11;5.08;69.06
69387;SHT31;56575;48.942;8.404;2023-04-03T06:38:36;5.09;69.39
69387;SHT31;56575;48.942;8.404;2023-04-03T06:41:02;5.09;68.71
69387;SHT31;56575;48.942;8.404;2023-04-03T06:43:27;5.05;68.66
69387;SHT31;56575;48.942;8.404;2023-04-03T06:45:53;5.03;69.85
69387;SHT31;56575;48.942;8.404;2023-04-03T06:48:18;5.05;69.22
69387;SHT31;56575;48.942;8.404;2023-04-03T06:50:45;5.08;69.55
69387;SHT31;56575;48.942;8.404;2023-04-03T06:53:10;5.12;69.42
69387;SHT31;56575;48.942;8.404;2023-04-03T06:55:37;5.13;69.46
69387;SHT31;56575;48.942;8.404;2023-04-03T06:58:03;5.18;70.06
69387;SHT31;56575;48.942;8.404;2023-04-03T07:00:29;5.18;70.29
69387;SHT31;56575;48.942;8.404;2023-04-03T07:02:55;5.20;70.62
69387;SHT31;56575;48.942;8.404;2023-04-03T07:05:21;5.23;70.32
69387;SHT31;56575;48.942;8.404;2023-04-03T07:07:48;5.23;69.67
69387;SHT31;56575;48.942;8.404;2023-04-03T07:10:14;5.19;69.30
69387;SHT31;56575;48.942;8.404;2023-04-03T07:12:40;5.16;69.71
69387;SHT31;56575;48.942;8.404;2023-04-03T07:15:06;5.19;69.88
69387;SHT31;56575;48.942;8.404;2023-04-03T07:17:32;5.24;69.99
69387;SHT31;56575;48.942;8.404;2023-04-03T07:19:58;5.20;69.61
69387;SHT31;56575;48.942;8.404;2023-04-03T07:22:23;5.23;70.12
69387;SHT31;56575;48.942;8.404;2023-04-03T07:24:48;5.29;69.77
69387;SHT31;56575;48.942;8.404;2023-04-03T07:27:14;5.41;69.82
69387;SHT31;56575;48.942;8.404;2023-04-03T07:29:39;5.54;69.52
69387;SHT31;56575;48.942;8.404;2023-04-03T07:32:05;5.71;69.40
69387;SHT31;56575;48.942;8.404;2023-04-03T07:34:32;5.89;69.15
69387;SHT31;56575;48.942;8.404;2023-04-03T07:36:58;6.02;68.97
69387;SHT31;56575;48.942;8.404;2023-04-03T07:39:24;6.03;68.32
69387;SHT31;56575;48.942;8.404;2023-04-03T07:41:49;6.10;69.16
69387;SHT31;56575;48.942;8.404;2023-04-03T07:44:15;6.12;68.79
69387;SHT31;56575;48.942;8.404;2023-04-03T07:46:41;6.19;68.04
69387;SHT31;56575;48.942;8.404;2023-04-03T07:49:07;6.19;67.94
69387;SHT31;56575;48.942;8.404;2023-04-03T07:51:33;6.19;68.26
69387;SHT31;56575;48.942;8.404;2023-04-03T07:53:58;6.19;67.70
69387;SHT31;56575;48.942;8.404;2023-04-03T07:56:24;6.27;68.14
69387;SHT31;56575;48.942;8.404;2023-04-03T07:58:50;6.30;67.48
69387;SHT31;56575;48.942;8.404;2023-04-03T08:01:16;6.34;67.83
69387;SHT31;56575;48.942;8.404;2023-04-03T08:03:41;6.41;66.54
69387;SHT31;56575;48.942;8.404;2023-04-03T08:06:07;6.49;66.51
69387;SHT31;56575;48.942;8.404;2023-04-03T08:08:34;6.54;67.10
69387;SHT31;56575;48.942;8.404;2023-04-03T08:11:01;6.58;66.99
69387;SHT31;56575;48.942;8.404;2023-04-03T08:13:28;6.65;66.68
69387;SHT31;56575;48.942;8.404;2023-04-03T08:15:53;6.68;66.18
69387;SHT31;56575;48.942;8.404;2023-04-03T08:18:19;6.75;66.44
69387;SHT31;56575;48.942;8.404;2023-04-03T08:20:46;6.79;65.74
69387;SHT31;56575;48.942;8.404;2023-04-03T08:23:12;6.92;65.80
69387;SHT31;56575;48.942;8.404;2023-04-03T08:25:41;6.95;65.69
69387;SHT31;56575;48.942;8.404;2023-04-03T08:28:07;6.99;66.07
69387;SHT31;56575;48.942;8.404;2023-04-03T08:30:34;7.06;65.45
69387;SHT31;56575;48.942;8.404;2023-04-03T08:33:02;7.23;65.43
69387;SHT31;56575;48.942;8.404;2023-04-03T08:35:28;7.47;68.38
69387;SHT31;56575;48.942;8.404;2023-04-03T08:37:53;7.57;65.87
69387;SHT31;56575;48.942;8.404;2023-04-03T08:40:19;7.58;62.92
69387;SHT31;56575;48.942;8.404;2023-04-03T08:47:54;7.68;62.81
69387;SHT31;56575;48.942;8.404;2023-04-03T08:50:28;7.61;62.99
69387;SHT31;56575;48.942;8.404;2023-04-03T08:52:59;7.58;63.31
69387;SHT31;56575;48.942;8.404;2023-04-03T08:55:34;7.62;62.25
69387;SHT31;56575;48.942;8.404;2023-04-03T08:58:09;7.58;62.43
69387;SHT31;56575;48.942;8.404;2023-04-03T09:01:00;7.61;62.15
69387;SHT31;56575;48.942;8.404;2023-04-03T09:03:30;7.65;63.07
69387;SHT31;56575;48.942;8.404;2023-04-03T09:06:26;7.54;62.37
69387;SHT31;56575;48.942;8.404;2023-04-03T09:09:13;7.54;62.03
69387;SHT31;56575;48.942;8.404;2023-04-03T09:11:51;7.62;61.67
69387;SHT31;56575;48.942;8.404;2023-04-03T09:14:38;7.62;61.49
69387;SHT31;56575;48.942;8.404;2023-04-03T09:17:14;7.68;61.62
69387;SHT31;56575;48.942;8.404;2023-04-03T09:22:18;7.86;60.17
69387;SHT31;56575;48.942;8.404;2023-04-03T09:25:25;7.92;59.49
69387;SHT31;56575;48.942;8.404;2023-04-03T09:27:51;7.95;59.38
69387;SHT31;56575;48.942;8.404;2023-04-03T09:30:20;8.06;58.86
69387;SHT31;56575;48.942;8.404;2023-04-03T09:32:48;8.04;58.81
69387;SHT31;56575;48.942;8.404;2023-04-03T09:35:21;8.24;58.07
69387;SHT31;56575;48.942;8.404;2023-04-03T09:37:49;8.41;56.59
69387;SHT31;56575;48.942;8.404;2023-04-03T09:42:55;8.49;55.34
69387;SHT31;56575;48.942;8.404;2023-04-03T09:45:33;8.58;56.88
69387;SHT31;56575;48.942;8.404;2023-04-03T09:48:19;8.69;56.32
69387;SHT31;56575;48.942;8.404;2023-04-03T09:53:37;8.71;55.91
69387;SHT31;56575;48.942;8.404;2023-04-03T09:58:43;8.87;57.06
69387;SHT31;56575;48.942;8.404;2023-04-03T10:04:10;8.87;55.52
69387;SHT31;56575;48.942;8.404;2023-04-03T10:06:46;8.82;55.01
69387;SHT31;56575;48.942;8.404;2023-04-03T10:09:30;8.69;55.56
69387;SHT31;56575;48.942;8.404;2023-04-03T10:12:06;8.58;55.74
69387;SHT31;56575;48.942;8.404;2023-04-03T10:14:37;8.49;54.98
69387;SHT31;56575;48.942;8.404;2023-04-03T10:19:58;8.59;54.83
69387;SHT31;56575;48.942;8.404;2023-04-03T10:22:41;8.83;55.19
69387;SHT31;56575;48.942;8.404;2023-04-03T10:25:16;8.86;54.44
69387;SHT31;56575;48.942;8.404;2023-04-03T10:27:49;8.96;53.44
69387;SHT31;56575;48.942;8.404;2023-04-03T10:38:33;9.03;51.82
69387;SHT31;56575;48.942;8.404;2023-04-03T10:46:50;9.54;50.75
69387;SHT31;56575;48.942;8.404;2023-04-03T10:52:07;9.45;50.03
69387;SHT31;56575;48.942;8.404;2023-04-03T10:54:41;9.42;50.38
69387;SHT31;56575;48.942;8.404;2023-04-03T10:57:11;9.28;49.23
69387;SHT31;56575;48.942;8.404;2023-04-03T10:59:40;10.02;48.37
69387;SHT31;56575;48.942;8.404;2023-04-03T11:02:11;9.99;46.97
69387;SHT31;56575;48.942;8.404;2023-04-03T11:04:42;9.95;46.90
69387;SHT31;56575;48.942;8.404;2023-04-03T11:07:24;9.82;47.03
69387;SHT31;56575;48.942;8.404;2023-04-03T11:10:02;9.65;47.64
69387;SHT31;56575;48.942;8.404;2023-04-03T11:12:38;9.67;48.52
69387;SHT31;56575;48.942;8.404;2023-04-03T11:15:15;9.81;47.21
69387;SHT31;56575;48.942;8.404;2023-04-03T11:17:48;9.74;48.53
69387;SHT31;56575;48.942;8.404;2023-04-03T11:20:27;9.63;48.09
69387;SHT31;56575;48.942;8.404;2023-04-03T11:23:21;9.45;47.92
69387;SHT31;56575;48.942;8.404;2023-04-03T11:25:50;9.35;47.36
69387;SHT31;56575;48.942;8.404;2023-04-03T11:28:17;9.48;47.92
69387;SHT31;56575;48.942;8.404;2023-04-03T11:33:37;9.61;46.85
69387;SHT31;56575;48.942;8.404;2023-04-03T11:36:19;9.75;47.33
69387;SHT31;56575;48.942;8.404;2023-04-03T11:38:47;9.79;46.37
69387;SHT31;56575;48.942;8.404;2023-04-03T11:41:14;9.68;46.50
69387;SHT31;56575;48.942;8.404;2023-04-03T11:43:43;9.61;47.31
69387;SHT31;56575;48.942;8.404;2023-04-03T11:46:20;9.68;48.00
69387;SHT31;56575;48.942;8.404;2023-04-03T11:48:48;9.78;48.82
69387;SHT31;56575;48.942;8.404;2023-04-03T11:53:43;10.00;48.08
69387;SHT31;56575;48.942;8.404;2023-04-03T12:04:14;9.58;48.92
69387;SHT31;56575;48.942;8.404;2023-04-03T12:11:49;9.85;50.49
69387;SHT31;56575;48.942;8.404;2023-04-03T12:14:16;9.95;49.58
69387;SHT31;56575;48.942;8.404;2023-04-03T12:16:45;10.02;47.65
69387;SHT31;56575;48.942;8.404;2023-04-03T12:27:02;10.16;47.84
69387;SHT31;56575;48.942;8.404;2023-04-03T12:47:42;9.79;49.52
69387;SHT31;56575;48.942;8.404;2023-04-03T12:50:37;9.72;49.65
69387;SHT31;56575;48.942;8.404;2023-04-03T12:55:31;9.74;50.58
69387;SHT31;56575;48.942;8.404;2023-04-03T12:57:57;9.68;49.14
69387;SHT31;56575;48.942;8.404;2023-04-03T13:00:30;9.81;58.74
69387;SHT31;56575;48.942;8.404;2023-04-03T13:02:57;9.96;52.70
69387;SHT31;56575;48.942;8.404;2023-04-03T13:05:23;10.09;50.18
69387;SHT31;56575;48.942;8.404;2023-04-03T13:07:59;10.12;48.80
69387;SHT31;56575;48.942;8.404;2023-04-03T13:10:25;10.07;47.38
69387;SHT31;56575;48.942;8.404;2023-04-03T13:13:07;9.96;48.22
69387;SHT31;56575;48.942;8.404;2023-04-03T13:15:47;9.69;47.34
69387;SHT31;56575;48.942;8.404;2023-04-03T13:20:54;9.68;47.82
69387;SHT31;56575;48.942;8.404;2023-04-03T13:23:22;9.57;46.40
69387;SHT31;56575;48.942;8.404;2023-04-03T13:25:49;9.62;48.31
69387;SHT31;56575;48.942;8.404;2023-04-03T13:28:19;9.58;47.40
69387;SHT31;56575;48.942;8.404;2023-04-03T13:31:01;9.63;47.41
69387;SHT31;56575;48.942;8.404;2023-04-03T13:33:30;9.76;47.85
69387;SHT31;56575;48.942;8.404;2023-04-03T13:36:13;10.07;47.97
69387;SHT31;56575;48.942;8.404;2023-04-03T13:38:41;10.20;46.46
69387;SHT31;56575;48.942;8.404;2023-04-03T13:41:47;10.18;45.88
69387;SHT31;56575;48.942;8.404;2023-04-03T13:46:52;10.02;46.85
69387;SHT31;56575;48.942;8.404;2023-04-03T13:49:44;9.90;47.00
69387;SHT31;56575;48.942;8.404;2023-04-03T13:54:46;9.62;47.68
69387;SHT31;56575;48.942;8.404;2023-04-03T13:57:15;9.59;46.39
69387;SHT31;56575;48.942;8.404;2023-04-03T13:59:41;9.62;45.70
69387;SHT31;56575;48.942;8.404;2023-04-03T14:02:18;9.63;46.39
69387;SHT31;56575;48.942;8.404;2023-04-03T14:04:45;9.72;46.69
69387;SHT31;56575;48.942;8.404;2023-04-03T14:07:12;9.76;45.60
69387;SHT31;56575;48.942;8.404;2023-04-03T14:09:38;9.81;45.45
69387;SHT31;56575;48.942;8.404;2023-04-03T14:12:11;9.93;46.10
69387;SHT31;56575;48.942;8.404;2023-04-03T14:14:38;10.03;46.18
69387;SHT31;56575;48.942;8.404;2023-04-03T14:17:14;10.07;46.12
69387;SHT31;56575;48.942;8.404;2023-04-03T14:19:40;10.16;46.03
69387;SHT31;56575;48.942;8.404;2023-04-03T14:22:27;10.18;46.97
69387;SHT31;56575;48.942;8.404;2023-04-03T14:24:54;10.10;45.40
69387;SHT31;56575;48.942;8.404;2023-04-03T14:27:46;9.92;44.57
69387;SHT31;56575;48.942;8.404;2023-04-03T14:30:17;9.81;44.40
69387;SHT31;56575;48.942;8.404;2023-04-03T14:32:43;9.72;44.48
69387;SHT31;56575;48.942;8.404;2023-04-03T14:35:08;9.69;45.45
69387;SHT31;56575;48.942;8.404;2023-04-03T14:37:34;9.76;45.69
69387;SHT31;56575;48.942;8.404;2023-04-03T14:40:02;9.87;45.75
69387;SHT31;56575;48.942;8.404;2023-04-03T14:42:31;9.85;45.81
69387;SHT31;56575;48.942;8.404;2023-04-03T14:44:58;9.96;46.02
69387;SHT31;56575;48.942;8.404;2023-04-03T14:47:26;10.00;44.36
69387;SHT31;56575;48.942;8.404;2023-04-03T14:49:53;10.44;43.89
69387;SHT31;56575;48.942;8.404;2023-04-03T14:52:30;11.21;42.91
69387;SHT31;56575;48.942;8.404;2023-04-03T14:54:57;11.54;41.62
69387;SHT31;56575;48.942;8.404;2023-04-03T14:57:27;11.59;41.81
69387;SHT31;56575;48.942;8.404;2023-04-03T14:59:53;11.42;45.33
69387;SHT31;56575;48.942;8.404;2023-04-03T15:02:35;11.04;42.00
69387;SHT31;56575;48.942;8.404;2023-04-03T15:05:03;10.89;42.20
69387;SHT31;56575;48.942;8.404;2023-04-03T15:07:35;10.96;42.95
69387;SHT31;56575;48.942;8.404;2023-04-03T15:10:25;10.96;43.53
69387;SHT31;56575;48.942;8.404;2023-04-03T15:12:52;10.85;42.96
69387;SHT31;56575;48.942;8.404;2023-04-03T15:15:19;10.78;44.33
69387;SHT31;56575;48.942;8.404;2023-04-03T15:17:46;10.71;43.34
69387;SHT31;56575;48.942;8.404;2023-04-03T15:20:19;10.57;43.89
69387;SHT31;56575;48.942;8.404;2023-04-03T15:22:45;10.47;44.66
69387;SHT31;56575;48.942;8.404;2023-04-03T15:25:11;11.09;46.58
69387;SHT31;56575;48.942;8.404;2023-04-03T15:27:37;11.81;41.30
69387;SHT31;56575;48.942;8.404;2023-04-03T15:30:11;12.19;39.12
69387;SHT31;56575;48.942;8.404;2023-04-03T15:32:38;11.95;39.17
69387;SHT31;56575;48.942;8.404;2023-04-03T15:35:04;11.30;40.05
69387;SHT31;56575;48.942;8.404;2023-04-03T15:37:29;10.96;41.17
69387;SHT31;56575;48.942;8.404;2023-04-03T15:39:55;10.68;42.28
69387;SHT31;56575;48.942;8.404;2023-04-03T15:42:20;10.36;42.07
69387;SHT31;56575;48.942;8.404;2023-04-03T15:44:46;10.55;42.08
69387;SHT31;56575;48.942;8.404;2023-04-03T15:47:11;10.95;40.86
69387;SHT31;56575;48.942;8.404;2023-04-03T15:49:37;11.34;38.90
69387;SHT31;56575;48.942;8.404;2023-04-03T15:52:03;11.79;38.51
69387;SHT31;56575;48.942;8.404;2023-04-03T15:54:28;12.31;37.83
69387;SHT31;56575;48.942;8.404;2023-04-03T15:56:55;12.69;37.19
69387;SHT31;56575;48.942;8.404;2023-04-03T15:59:21;12.95;36.27
69387;SHT31;56575;48.942;8.404;2023-04-03T16:01:47;13.19;35.58
69387;SHT31;56575;48.942;8.404;2023-04-03T16:04:13;13.13;35.82
69387;SHT31;56575;48.942;8.404;2023-04-03T16:06:38;12.42;36.73
69387;SHT31;56575;48.942;8.404;2023-04-03T16:09:04;11.64;38.11
69387;SHT31;56575;48.942;8.404;2023-04-03T16:11:30;10.96;39.35
69387;SHT31;56575;48.942;8.404;2023-04-03T16:13:55;10.65;39.99
69387;SHT31;56575;48.942;8.404;2023-04-03T16:16:22;10.33;41.06
69387;SHT31;56575;48.942;8.404;2023-04-03T16:18:49;10.10;41.70
69387;SHT31;56575;48.942;8.404;2023-04-03T16:21:15;10.44;42.28
69387;SHT31;56575;48.942;8.404;2023-04-03T16:23:42;10.71;40.60
69387;SHT31;56575;48.942;8.404;2023-04-03T16:26:07;11.06;41.09
69387;SHT31;56575;48.942;8.404;2023-04-03T16:28:33;11.28;39.08
69387;SHT31;56575;48.942;8.404;2023-04-03T16:30:59;11.51;38.85
69387;SHT31;56575;48.942;8.404;2023-04-03T16:33:25;11.85;39.23
69387;SHT31;56575;48.942;8.404;2023-04-03T16:35:51;11.79;38.72
69387;SHT31;56575;48.942;8.404;2023-04-03T16:38:17;11.67;38.17
69387;SHT31;56575;48.942;8.404;2023-04-03T16:40:44;11.51;38.18
69387;SHT31;56575;48.942;8.404;2023-04-03T16:43:10;11.23;38.37
69387;SHT31;56575;48.942;8.404;2023-04-03T16:45:36;10.99;39.39
69387;SHT31;56575;48.942;8.404;2023-04-03T16:48:04;10.82;40.02
69387;SHT31;56575;48.942;8.404;2023-04-03T16:50:30;10.75;40.55
69387;SHT31;56575;48.942;8.404;2023-04-03T16:52:55;10.58;39.21
69387;SHT31;56575;48.942;8.404;2023-04-03T16:55:21;10.30;40.73
69387;SHT31;56575;48.942;8.404;2023-04-03T17:00:24;9.83;41.98
69387;SHT31;56575;48.942;8.404;2023-04-03T17:02:50;9.65;42.20
69387;SHT31;56575;48.942;8.404;2023-04-03T17:05:15;9.58;43.76
69387;SHT31;56575;48.942;8.404;2023-04-03T17:07:41;9.52;44.45
69387;SHT31;56575;48.942;8.404;2023-04-03T17:10:10;9.40;43.31
69387;SHT31;56575;48.942;8.404;2023-04-03T17:12:36;9.26;43.47
69387;SHT31;56575;48.942;8.404;2023-04-03T17:15:02;9.21;43.84
69387;SHT31;56575;48.942;8.404;2023-04-03T17:17:30;9.00;43.17
69387;SHT31;56575;48.942;8.404;2023-04-03T17:19:56;8.90;43.43
69387;SHT31;56575;48.942;8.404;2023-04-03T17:22:21;8.82;44.18
69387;SHT31;56575;48.942;8.404;2023-04-03T17:24:47;8.82;44.07
69387;SHT31;56575;48.942;8.404;2023-04-03T17:27:12;8.78;45.63